sensor_id;sensor_type;location;lat;lon;timestamp;pressure;altitude;pressure_sealevel;temperature;humidity
49827;BME280;35715;51.570;6.036;2023-05-07T00:05:00;101487.69;;;17.18;83.71
49827;BME280;35715;51.570;6.036;2023-05-07T00:07:27;101476.28;;;17.16;83.39
49827;BME280;35715;51.570;6.036;2023-05-07T00:09:52;101476.84;;;17.10;83.45
49827;BME280;35715;51.570;6.036;2023-05-07T00:12:17;101471.97;;;17.00;84.22
49827;BME280;35715;51.570;6.036;2023-05-07T00:15:02;101473.22;;;16.90;85.18
49827;BME280;35715;51.570;6.036;2023-05-07T00:17:27;101478.09;;;16.84;86.03
49827;BME280;35715;51.570;6.036;2023-05-07T00:19:53;101474.94;;;16.73;87.21
49827;BME280;35715;51.570;6.036;2023-05-07T00:25:02;101471.06;;;16.50;89.05
49827;BME280;35715;51.570;6.036;2023-05-07T00:27:28;101471.25;;;16.53;87.93
49827;BME280;35715;51.570;6.036;2023-05-07T00:29:54;101471.91;;;16.65;86.41
49827;BME280;35715;51.570;6.036;2023-05-07T00:32:19;101462.84;;;16.75;86.09
49827;BME280;35715;51.570;6.036;2023-05-07T00:34:44;101477.25;;;16.85;85.63
49827;BME280;35715;51.570;6.036;2023-05-07T00:37:10;101468.81;;;16.89;85.64
49827;BME280;35715;51.570;6.036;2023-05-07T00:39:49;101463.75;;;16.92;85.94
49827;BME280;35715;51.570;6.036;2023-05-07T00:45:12;101468.88;;;16.74;86.46
49827;BME280;35715;51.570;6.036;2023-05-07T00:47:37;101460.81;;;16.70;86.15
49827;BME280;35715;51.570;6.036;2023-05-07T00:50:02;101456.69;;;16.73;85.95
49827;BME280;35715;51.570;6.036;2023-05-07T00:52:28;101459.28;;;16.73;85.48
49827;BME280;35715;51.570;6.036;2023-05-07T00:54:54;101457.00;;;16.79;85.83
49827;BME280;35715;51.570;6.036;2023-05-07T00:57:20;101459.84;;;16.84;85.89
49827;BME280;35715;51.570;6.036;2023-05-07T00:59:46;101458.31;;;16.88;86.05
49827;BME280;35715;51.570;6.036;2023-05-07T01:02:11;101449.84;;;16.92;86.13
49827;BME280;35715;51.570;6.036;2023-05-07T01:04:37;101456.19;;;16.97;85.76
49827;BME280;35715;51.570;6.036;2023-05-07T01:07:02;101451.81;;;16.96;85.59
49827;BME280;35715;51.570;6.036;2023-05-07T01:09:29;101456.94;;;16.94;86.14
49827;BME280;35715;51.570;6.036;2023-05-07T01:11:55;101448.88;;;16.90;85.53
49827;BME280;35715;51.570;6.036;2023-05-07T01:14:22;101452.28;;;16.89;85.67
49827;BME280;35715;51.570;6.036;2023-05-07T01:16:48;101447.16;;;16.90;85.62
49827;BME280;35715;51.570;6.036;2023-05-07T01:19:16;101443.84;;;16.93;86.36
49827;BME280;35715;51.570;6.036;2023-05-07T01:21:44;101456.19;;;16.97;86.42
49827;BME280;35715;51.570;6.036;2023-05-07T01:24:10;101444.94;;;16.98;86.72
49827;BME280;35715;51.570;6.036;2023-05-07T01:26:36;101449.34;;;16.99;86.50
49827;BME280;35715;51.570;6.036;2023-05-07T01:29:02;101439.88;;;17.01;86.49
49827;BME280;35715;51.570;6.036;2023-05-07T01:31:28;101441.22;;;16.93;86.14
49827;BME280;35715;51.570;6.036;2023-05-07T01:33:53;101442.97;;;16.77;86.84
49827;BME280;35715;51.570;6.036;2023-05-07T01:41:53;101451.63;;;16.76;88.38
49827;BME280;35715;51.570;6.036;2023-05-07T01:44:19;101453.63;;;16.82;87.98
49827;BME280;35715;51.570;6.036;2023-05-07T01:46:45;101453.63;;;16.82;87.35
49827;BME280;35715;51.570;6.036;2023-05-07T01:49:17;101460.56;;;16.81;87.14
49827;BME280;35715;51.570;6.036;2023-05-07T01:51:43;101448.09;;;16.76;87.54
49827;BME280;35715;51.570;6.036;2023-05-07T01:54:08;101439.25;;;16.72;87.65
49827;BME280;35715;51.570;6.036;2023-05-07T01:56:34;101433.88;;;16.69;88.11
49827;BME280;35715;51.570;6.036;2023-05-07T01:59:00;101433.47;;;16.61;88.90
49827;BME280;35715;51.570;6.036;2023-05-07T02:01:26;101421.97;;;16.58;89.31
49827;BME280;35715;51.570;6.036;2023-05-07T02:03:52;101429.16;;;16.62;88.44
49827;BME280;35715;51.570;6.036;2023-05-07T02:06:18;101424.09;;;16.65;88.41
49827;BME280;35715;51.570;6.036;2023-05-07T02:08:52;101430.88;;;16.61;88.37
49827;BME280;35715;51.570;6.036;2023-05-07T02:11:17;101435.94;;;16.58;88.59
49827;BME280;35715;51.570;6.036;2023-05-07T02:13:42;101427.03;;;16.55;88.86
49827;BME280;35715;51.570;6.036;2023-05-07T02:16:07;101429.47;;;16.52;88.90
49827;BME280;35715;51.570;6.036;2023-05-07T02:21:24;101424.19;;;16.50;88.89
49827;BME280;35715;51.570;6.036;2023-05-07T02:23:50;101425.09;;;16.50;88.54
49827;BME280;35715;51.570;6.036;2023-05-07T02:26:34;101426.22;;;16.56;88.60
49827;BME280;35715;51.570;6.036;2023-05-07T02:29:00;101425.25;;;16.54;88.50
49827;BME280;35715;51.570;6.036;2023-05-07T02:31:25;101427.88;;;16.54;88.95
49827;BME280;35715;51.570;6.036;2023-05-07T02:33:51;101413.38;;;16.42;90.02
49827;BME280;35715;51.570;6.036;2023-05-07T02:36:16;101409.22;;;16.29;90.64
49827;BME280;35715;51.570;6.036;2023-05-07T02:38:55;101415.06;;;16.25;90.23
49827;BME280;35715;51.570;6.036;2023-05-07T02:41:20;101414.28;;;16.26;90.11
49827;BME280;35715;51.570;6.036;2023-05-07T02:43:46;101413.34;;;16.26;90.03
49827;BME280;35715;51.570;6.036;2023-05-07T02:46:11;101422.63;;;16.21;90.29
49827;BME280;35715;51.570;6.036;2023-05-07T02:48:38;101422.41;;;16.16;90.49
49827;BME280;35715;51.570;6.036;2023-05-07T02:51:03;101439.81;;;16.17;90.15
49827;BME280;35715;51.570;6.036;2023-05-07T02:53:29;101427.22;;;16.25;90.03
49827;BME280;35715;51.570;6.036;2023-05-07T02:55:58;101425.81;;;16.31;90.17
49827;BME280;35715;51.570;6.036;2023-05-07T02:58:30;101430.31;;;16.34;89.38
49827;BME280;35715;51.570;6.036;2023-05-07T03:00:55;101433.63;;;16.31;89.25
49827;BME280;35715;51.570;6.036;2023-05-07T03:03:20;101436.22;;;16.31;89.05
49827;BME280;35715;51.570;6.036;2023-05-07T03:05:46;101434.09;;;16.24;89.65
49827;BME280;35715;51.570;6.036;2023-05-07T03:08:18;101435.09;;;16.26;89.93
49827;BME280;35715;51.570;6.036;2023-05-07T03:10:44;101444.34;;;16.21;89.57
49827;BME280;35715;51.570;6.036;2023-05-07T03:13:09;101441.59;;;16.18;90.03
49827;BME280;35715;51.570;6.036;2023-05-07T03:15:34;101434.53;;;16.16;90.42
49827;BME280;35715;51.570;6.036;2023-05-07T03:20:30;101438.06;;;16.01;91.81
49827;BME280;35715;51.570;6.036;2023-05-07T03:22:56;101439.69;;;15.99;91.88
49827;BME280;35715;51.570;6.036;2023-05-07T03:25:21;101437.97;;;16.00;91.30
49827;BME280;35715;51.570;6.036;2023-05-07T03:27:46;101434.50;;;15.99;93.01
49827;BME280;35715;51.570;6.036;2023-05-07T03:30:11;101440.97;;;15.91;94.47
49827;BME280;35715;51.570;6.036;2023-05-07T03:32:37;101437.22;;;15.86;94.97
49827;BME280;35715;51.570;6.036;2023-05-07T03:35:02;101433.75;;;15.85;94.42
49827;BME280;35715;51.570;6.036;2023-05-07T03:37:28;101431.94;;;15.84;94.06
49827;BME280;35715;51.570;6.036;2023-05-07T03:42:38;101430.47;;;15.89;93.28
49827;BME280;35715;51.570;6.036;2023-05-07T03:45:04;101425.34;;;15.91;92.56
49827;BME280;35715;51.570;6.036;2023-05-07T03:47:29;101429.59;;;15.89;92.93
49827;BME280;35715;51.570;6.036;2023-05-07T03:49:55;101416.66;;;15.90;92.66
49827;BME280;35715;51.570;6.036;2023-05-07T03:52:21;101427.31;;;15.95;92.63
49827;BME280;35715;51.570;6.036;2023-05-07T03:54:50;101425.59;;;15.95;91.80
49827;BME280;35715;51.570;6.036;2023-05-07T03:57:15;101426.19;;;15.90;92.20
49827;BME280;35715;51.570;6.036;2023-05-07T04:02:26;101423.34;;;15.85;92.44
49827;BME280;35715;51.570;6.036;2023-05-07T04:04:51;101431.22;;;15.87;92.01
49827;BME280;35715;51.570;6.036;2023-05-07T04:07:16;101433.00;;;15.88;92.62
49827;BME280;35715;51.570;6.036;2023-05-07T04:09:44;101432.91;;;15.86;92.97
49827;BME280;35715;51.570;6.036;2023-05-07T04:12:09;101431.84;;;15.83;93.63
49827;BME280;35715;51.570;6.036;2023-05-07T04:14:34;101438.38;;;15.76;94.22
49827;BME280;35715;51.570;6.036;2023-05-07T04:16:59;101442.25;;;15.68;95.24
49827;BME280;35715;51.570;6.036;2023-05-07T04:19:30;101444.84;;;15.68;93.99
49827;BME280;35715;51.570;6.036;2023-05-07T04:21:55;101438.94;;;15.70;94.07
49827;BME280;35715;51.570;6.036;2023-05-07T04:24:21;101447.00;;;15.75;93.34
49827;BME280;35715;51.570;6.036;2023-05-07T04:26:46;101450.56;;;15.77;93.66
49827;BME280;35715;51.570;6.036;2023-05-07T04:29:22;101441.19;;;15.79;93.07
49827;BME280;35715;51.570;6.036;2023-05-07T04:32:09;101457.06;;;15.69;96.00
49827;BME280;35715;51.570;6.036;2023-05-07T04:34:34;101458.56;;;15.65;96.58
49827;BME280;35715;51.570;6.036;2023-05-07T04:37:00;101449.19;;;15.52;98.66
49827;BME280;35715;51.570;6.036;2023-05-07T04:39:32;101445.69;;;15.52;99.03
49827;BME280;35715;51.570;6.036;2023-05-07T04:41:57;101447.22;;;15.48;99.13
49827;BME280;35715;51.570;6.036;2023-05-07T04:44:22;101449.28;;;15.54;98.22
49827;BME280;35715;51.570;6.036;2023-05-07T04:46:48;101447.56;;;15.54;97.86
49827;BME280;35715;51.570;6.036;2023-05-07T04:49:17;101456.63;;;15.61;97.34
49827;BME280;35715;51.570;6.036;2023-05-07T04:51:51;101457.16;;;15.70;96.79
49827;BME280;35715;51.570;6.036;2023-05-07T04:54:17;101454.38;;;15.82;95.61
49827;BME280;35715;51.570;6.036;2023-05-07T04:57:02;101463.50;;;15.90;95.40
49827;BME280;35715;51.570;6.036;2023-05-07T04:59:33;101463.34;;;15.87;95.80
49827;BME280;35715;51.570;6.036;2023-05-07T05:01:58;101462.38;;;15.85;96.60
49827;BME280;35715;51.570;6.036;2023-05-07T05:04:24;101452.94;;;15.87;95.59
49827;BME280;35715;51.570;6.036;2023-05-07T05:06:49;101453.72;;;15.86;96.15
49827;BME280;35715;51.570;6.036;2023-05-07T05:09:28;101455.63;;;15.89;96.05
49827;BME280;35715;51.570;6.036;2023-05-07T05:11:54;101458.56;;;15.95;95.10
49827;BME280;35715;51.570;6.036;2023-05-07T05:14:19;101458.81;;;16.00;94.59
49827;BME280;35715;51.570;6.036;2023-05-07T05:16:44;101456.47;;;16.04;94.80
49827;BME280;35715;51.570;6.036;2023-05-07T05:21:39;101459.41;;;16.10;95.08
49827;BME280;35715;51.570;6.036;2023-05-07T05:24:23;101454.94;;;16.08;96.32
49827;BME280;35715;51.570;6.036;2023-05-07T05:26:48;101456.63;;;16.07;96.07
49827;BME280;35715;51.570;6.036;2023-05-07T05:32:24;101466.41;;;16.11;95.85
49827;BME280;35715;51.570;6.036;2023-05-07T05:34:50;101464.06;;;16.16;95.38
49827;BME280;35715;51.570;6.036;2023-05-07T05:37:16;101463.16;;;16.16;95.63
49827;BME280;35715;51.570;6.036;2023-05-07T05:42:11;101473.75;;;16.19;95.68
49827;BME280;35715;51.570;6.036;2023-05-07T05:44:37;101475.59;;;16.21;95.68
49827;BME280;35715;51.570;6.036;2023-05-07T05:47:02;101478.47;;;16.26;96.09
49827;BME280;35715;51.570;6.036;2023-05-07T05:49:30;101482.22;;;16.31;95.74
49827;BME280;35715;51.570;6.036;2023-05-07T05:51:55;101484.69;;;16.44;95.10
49827;BME280;35715;51.570;6.036;2023-05-07T05:54:21;101488.25;;;16.46;94.85
49827;BME280;35715;51.570;6.036;2023-05-07T05:56:47;101483.22;;;16.49;94.84
49827;BME280;35715;51.570;6.036;2023-05-07T05:59:13;101481.56;;;16.52;95.69
49827;BME280;35715;51.570;6.036;2023-05-07T06:01:57;101481.41;;;16.48;95.59
49827;BME280;35715;51.570;6.036;2023-05-07T06:04:22;101484.19;;;16.52;96.07
49827;BME280;35715;51.570;6.036;2023-05-07T06:06:47;101487.78;;;16.54;95.94
49827;BME280;35715;51.570;6.036;2023-05-07T06:09:22;101496.09;;;16.63;95.88
49827;BME280;35715;51.570;6.036;2023-05-07T06:11:47;101497.06;;;16.65;95.44
49827;BME280;35715;51.570;6.036;2023-05-07T06:14:13;101501.88;;;16.74;94.86
49827;BME280;35715;51.570;6.036;2023-05-07T06:16:38;101506.44;;;16.78;94.24
49827;BME280;35715;51.570;6.036;2023-05-07T06:19:04;101504.06;;;16.82;94.82
49827;BME280;35715;51.570;6.036;2023-05-07T06:21:30;101503.25;;;16.83;94.48
49827;BME280;35715;51.570;6.036;2023-05-07T06:23:55;101499.59;;;16.80;94.40
49827;BME280;35715;51.570;6.036;2023-05-07T06:26:21;101491.41;;;16.89;94.80
49827;BME280;35715;51.570;6.036;2023-05-07T06:28:46;101493.69;;;16.99;94.67
49827;BME280;35715;51.570;6.036;2023-05-07T06:31:15;101494.41;;;16.96;93.68
49827;BME280;35715;51.570;6.036;2023-05-07T06:33:40;101495.34;;;17.15;94.08
49827;BME280;35715;51.570;6.036;2023-05-07T06:36:06;101492.63;;;17.30;93.18
49827;BME280;35715;51.570;6.036;2023-05-07T06:38:40;101503.16;;;17.49;91.99
49827;BME280;35715;51.570;6.036;2023-05-07T06:41:06;101496.38;;;17.53;91.79
49827;BME280;35715;51.570;6.036;2023-05-07T06:43:31;101496.16;;;17.48;91.17
49827;BME280;35715;51.570;6.036;2023-05-07T06:48:42;101502.38;;;17.50;90.41
49827;BME280;35715;51.570;6.036;2023-05-07T06:51:07;101503.63;;;17.59;90.83
49827;BME280;35715;51.570;6.036;2023-05-07T06:53:51;101497.81;;;17.64;90.31
49827;BME280;35715;51.570;6.036;2023-05-07T06:56:16;101501.41;;;17.66;88.96
49827;BME280;35715;51.570;6.036;2023-05-07T06:58:46;101501.03;;;17.77;89.19
49827;BME280;35715;51.570;6.036;2023-05-07T07:01:11;101507.84;;;17.73;88.23
49827;BME280;35715;51.570;6.036;2023-05-07T07:03:36;101505.00;;;17.68;87.78
49827;BME280;35715;51.570;6.036;2023-05-07T07:06:01;101511.75;;;17.65;88.17
49827;BME280;35715;51.570;6.036;2023-05-07T07:08:29;101511.59;;;17.62;88.52
49827;BME280;35715;51.570;6.036;2023-05-07T07:10:54;101513.41;;;17.63;88.98
49827;BME280;35715;51.570;6.036;2023-05-07T07:13:20;101511.16;;;17.70;89.34
49827;BME280;35715;51.570;6.036;2023-05-07T07:15:45;101512.59;;;17.82;88.89
49827;BME280;35715;51.570;6.036;2023-05-07T07:18:11;101518.41;;;17.76;88.24
49827;BME280;35715;51.570;6.036;2023-05-07T07:20:37;101519.06;;;17.72;88.35
49827;BME280;35715;51.570;6.036;2023-05-07T07:23:02;101519.16;;;17.73;88.23
49827;BME280;35715;51.570;6.036;2023-05-07T07:25:27;101520.25;;;17.79;89.20
49827;BME280;35715;51.570;6.036;2023-05-07T07:34:00;101518.41;;;18.12;88.20
49827;BME280;35715;51.570;6.036;2023-05-07T07:36:25;101525.38;;;18.12;86.69
49827;BME280;35715;51.570;6.036;2023-05-07T07:38:53;101525.88;;;18.22;85.98
49827;BME280;35715;51.570;6.036;2023-05-07T07:41:19;101526.13;;;18.47;86.34
49827;BME280;35715;51.570;6.036;2023-05-07T07:43:44;101519.69;;;18.58;85.04
49827;BME280;35715;51.570;6.036;2023-05-07T07:46:28;101518.38;;;18.68;85.29
49827;BME280;35715;51.570;6.036;2023-05-07T07:51:27;101523.03;;;18.93;83.64
49827;BME280;35715;51.570;6.036;2023-05-07T07:53:52;101524.81;;;18.94;82.11
49827;BME280;35715;51.570;6.036;2023-05-07T07:56:18;101527.78;;;19.02;82.88
49827;BME280;35715;51.570;6.036;2023-05-07T07:58:44;101529.41;;;19.19;82.46
49827;BME280;35715;51.570;6.036;2023-05-07T08:01:09;101535.81;;;19.26;81.57
49827;BME280;35715;51.570;6.036;2023-05-07T08:03:37;101536.28;;;19.58;81.42
49827;BME280;35715;51.570;6.036;2023-05-07T08:06:03;101539.28;;;19.67;81.42
49827;BME280;35715;51.570;6.036;2023-05-07T08:08:29;101540.16;;;19.46;80.15
49827;BME280;35715;51.570;6.036;2023-05-07T08:10:54;101542.47;;;19.60;80.34
49827;BME280;35715;51.570;6.036;2023-05-07T08:13:20;101541.00;;;19.66;80.66
49827;BME280;35715;51.570;6.036;2023-05-07T08:15:45;101531.91;;;19.78;79.35
49827;BME280;35715;51.570;6.036;2023-05-07T08:18:11;101538.00;;;19.99;79.47
49827;BME280;35715;51.570;6.036;2023-05-07T08:20:36;101529.22;;;20.20;77.87
49827;BME280;35715;51.570;6.036;2023-05-07T08:23:04;101531.63;;;20.36;77.58
49827;BME280;35715;51.570;6.036;2023-05-07T08:25:32;101529.13;;;20.39;77.48
49827;BME280;35715;51.570;6.036;2023-05-07T08:27:57;101530.28;;;20.48;77.13
49827;BME280;35715;51.570;6.036;2023-05-07T08:30:23;101537.75;;;20.37;75.82
49827;BME280;35715;51.570;6.036;2023-05-07T08:32:48;101531.22;;;20.50;75.83
49827;BME280;35715;51.570;6.036;2023-05-07T08:35:13;101537.13;;;20.65;74.55
49827;BME280;35715;51.570;6.036;2023-05-07T08:37:38;101525.44;;;20.59;73.58
49827;BME280;35715;51.570;6.036;2023-05-07T08:40:04;101538.94;;;20.92;72.96
49827;BME280;35715;51.570;6.036;2023-05-07T08:42:29;101534.19;;;21.06;70.03
49827;BME280;35715;51.570;6.036;2023-05-07T08:44:56;101532.34;;;21.52;71.26
49827;BME280;35715;51.570;6.036;2023-05-07T08:47:22;101528.31;;;22.18;68.55
49827;BME280;35715;51.570;6.036;2023-05-07T08:49:53;101525.41;;;22.66;67.32
49827;BME280;35715;51.570;6.036;2023-05-07T08:52:19;101527.41;;;22.75;63.93
49827;BME280;35715;51.570;6.036;2023-05-07T08:54:45;101519.31;;;22.67;64.21
49827;BME280;35715;51.570;6.036;2023-05-07T08:57:10;101524.81;;;22.76;62.97
49827;BME280;35715;51.570;6.036;2023-05-07T08:59:47;101526.66;;;23.09;63.88
49827;BME280;35715;51.570;6.036;2023-05-07T09:02:31;101529.56;;;23.53;64.44
49827;BME280;35715;51.570;6.036;2023-05-07T09:04:56;101521.06;;;24.00;60.31
49827;BME280;35715;51.570;6.036;2023-05-07T09:07:21;101526.91;;;24.26;59.44
49827;BME280;35715;51.570;6.036;2023-05-07T09:10:04;101526.72;;;24.17;58.63
49827;BME280;35715;51.570;6.036;2023-05-07T09:12:29;101523.94;;;24.52;59.87
49827;BME280;35715;51.570;6.036;2023-05-07T09:14:55;101517.88;;;24.55;54.82
49827;BME280;35715;51.570;6.036;2023-05-07T09:17:20;101530.00;;;24.88;57.38
49827;BME280;35715;51.570;6.036;2023-05-07T09:19:45;101530.38;;;25.08;56.56
49827;BME280;35715;51.570;6.036;2023-05-07T09:22:11;101539.72;;;25.35;55.81
49827;BME280;35715;51.570;6.036;2023-05-07T09:24:36;101535.97;;;25.75;54.28
49827;BME280;35715;51.570;6.036;2023-05-07T09:27:03;101543.94;;;25.77;55.86
49827;BME280;35715;51.570;6.036;2023-05-07T09:29:29;101536.97;;;25.82;54.04
49827;BME280;35715;51.570;6.036;2023-05-07T09:31:55;101538.63;;;25.77;52.90
49827;BME280;35715;51.570;6.036;2023-05-07T09:34:20;101534.81;;;26.11;55.80
49827;BME280;35715;51.570;6.036;2023-05-07T09:36:46;101538.66;;;26.33;51.87
49827;BME280;35715;51.570;6.036;2023-05-07T09:39:26;101527.44;;;26.53;51.48
49827;BME280;35715;51.570;6.036;2023-05-07T09:41:51;101542.28;;;25.82;49.41
49827;BME280;35715;51.570;6.036;2023-05-07T09:44:19;101540.88;;;25.05;52.45
49827;BME280;35715;51.570;6.036;2023-05-07T09:46:45;101542.03;;;25.19;54.31
49827;BME280;35715;51.570;6.036;2023-05-07T09:49:27;101543.19;;;25.85;53.26
49827;BME280;35715;51.570;6.036;2023-05-07T09:51:54;101536.63;;;25.59;49.18
49827;BME280;35715;51.570;6.036;2023-05-07T09:54:20;101538.22;;;25.03;50.48
49827;BME280;35715;51.570;6.036;2023-05-07T09:56:45;101528.28;;;25.37;50.81
49827;BME280;35715;51.570;6.036;2023-05-07T09:59:14;101537.16;;;25.93;51.85
49827;BME280;35715;51.570;6.036;2023-05-07T10:01:41;101536.84;;;25.73;50.70
49827;BME280;35715;51.570;6.036;2023-05-07T10:04:07;101534.34;;;25.82;51.16
49827;BME280;35715;51.570;6.036;2023-05-07T10:06:34;101534.41;;;25.86;48.73
49827;BME280;35715;51.570;6.036;2023-05-07T10:08:59;101530.53;;;26.19;48.08
49827;BME280;35715;51.570;6.036;2023-05-07T10:11:25;101540.94;;;26.71;46.97
49827;BME280;35715;51.570;6.036;2023-05-07T10:13:51;101523.56;;;26.97;47.57
49827;BME280;35715;51.570;6.036;2023-05-07T10:16:17;101539.81;;;27.31;45.64
49827;BME280;35715;51.570;6.036;2023-05-07T10:18:50;101538.41;;;27.68;46.58
49827;BME280;35715;51.570;6.036;2023-05-07T10:21:17;101539.22;;;27.59;44.43
49827;BME280;35715;51.570;6.036;2023-05-07T10:23:48;101537.25;;;27.37;43.64
49827;BME280;35715;51.570;6.036;2023-05-07T10:26:14;101530.88;;;27.19;42.91
49827;BME280;35715;51.570;6.036;2023-05-07T10:28:42;101531.13;;;27.42;44.81
49827;BME280;35715;51.570;6.036;2023-05-07T10:33:42;101520.75;;;27.73;45.17
49827;BME280;35715;51.570;6.036;2023-05-07T10:36:09;101529.50;;;27.63;43.67
49827;BME280;35715;51.570;6.036;2023-05-07T10:38:38;101533.56;;;27.24;43.04
49827;BME280;35715;51.570;6.036;2023-05-07T10:41:05;101529.56;;;26.80;43.99
49827;BME280;35715;51.570;6.036;2023-05-07T10:43:40;101535.66;;;26.73;45.76
49827;BME280;35715;51.570;6.036;2023-05-07T10:51:28;101535.59;;;26.67;45.96
49827;BME280;35715;51.570;6.036;2023-05-07T10:56:40;101530.16;;;26.58;45.23
49827;BME280;35715;51.570;6.036;2023-05-07T10:59:34;101529.47;;;26.71;46.56
49827;BME280;35715;51.570;6.036;2023-05-07T11:02:05;101532.00;;;26.63;45.17
49827;BME280;35715;51.570;6.036;2023-05-07T11:04:35;101531.84;;;26.54;45.38
49827;BME280;35715;51.570;6.036;2023-05-07T11:13:00;101529.56;;;25.59;48.34
49827;BME280;35715;51.570;6.036;2023-05-07T11:15:08;101526.13;;;25.16;48.39
49827;BME280;35715;51.570;6.036;2023-05-07T11:20:20;101523.63;;;24.78;48.44
49827;BME280;35715;51.570;6.036;2023-05-07T11:22:46;101529.00;;;24.41;46.93
49827;BME280;35715;51.570;6.036;2023-05-07T11:25:14;101526.66;;;24.14;46.73
49827;BME280;35715;51.570;6.036;2023-05-07T11:27:42;101534.84;;;23.88;47.10
49827;BME280;35715;51.570;6.036;2023-05-07T11:30:08;101529.25;;;23.76;48.27
49827;BME280;35715;51.570;6.036;2023-05-07T11:32:33;101537.06;;;23.73;47.49
49827;BME280;35715;51.570;6.036;2023-05-07T11:34:59;101532.06;;;23.84;48.01
49827;BME280;35715;51.570;6.036;2023-05-07T11:37:26;101531.88;;;24.13;49.47
49827;BME280;35715;51.570;6.036;2023-05-07T11:40:03;101525.44;;;24.38;49.47
49827;BME280;35715;51.570;6.036;2023-05-07T11:42:33;101529.75;;;24.36;50.98
49827;BME280;35715;51.570;6.036;2023-05-07T11:45:00;101529.94;;;24.45;50.16
49827;BME280;35715;51.570;6.036;2023-05-07T11:47:29;101528.53;;;24.59;49.59
49827;BME280;35715;51.570;6.036;2023-05-07T11:49:55;101521.25;;;24.49;48.45
49827;BME280;35715;51.570;6.036;2023-05-07T11:52:21;101526.75;;;24.19;48.07
49827;BME280;35715;51.570;6.036;2023-05-07T11:54:53;101528.69;;;24.26;47.75
49827;BME280;35715;51.570;6.036;2023-05-07T11:57:20;101534.66;;;24.19;48.36
49827;BME280;35715;51.570;6.036;2023-05-07T12:00:04;101536.38;;;24.17;50.24
49827;BME280;35715;51.570;6.036;2023-05-07T12:02:30;101542.47;;;24.14;47.61
49827;BME280;35715;51.570;6.036;2023-05-07T12:04:56;101539.63;;;24.05;49.45
49827;BME280;35715;51.570;6.036;2023-05-07T12:07:21;101542.78;;;24.28;49.82
49827;BME280;35715;51.570;6.036;2023-05-07T12:09:48;101543.84;;;24.36;50.13
49827;BME280;35715;51.570;6.036;2023-05-07T12:12:14;101538.38;;;24.27;47.29
49827;BME280;35715;51.570;6.036;2023-05-07T12:14:42;101541.66;;;24.17;47.92
49827;BME280;35715;51.570;6.036;2023-05-07T12:17:08;101550.34;;;24.13;47.89
49827;BME280;35715;51.570;6.036;2023-05-07T12:22:20;101538.75;;;24.04;50.00
49827;BME280;35715;51.570;6.036;2023-05-07T12:24:46;101543.66;;;23.90;48.88
49827;BME280;35715;51.570;6.036;2023-05-07T12:27:12;101542.25;;;24.05;51.88
49827;BME280;35715;51.570;6.036;2023-05-07T12:29:38;101548.31;;;24.01;49.03
49827;BME280;35715;51.570;6.036;2023-05-07T12:32:05;101553.13;;;23.84;49.03
49827;BME280;35715;51.570;6.036;2023-05-07T12:34:31;101545.06;;;23.76;48.45
49827;BME280;35715;51.570;6.036;2023-05-07T12:36:56;101546.00;;;23.80;48.73
49827;BME280;35715;51.570;6.036;2023-05-07T12:39:26;101556.13;;;23.63;49.66
49827;BME280;35715;51.570;6.036;2023-05-07T12:41:52;101554.41;;;23.65;50.31
49827;BME280;35715;51.570;6.036;2023-05-07T12:44:18;101549.22;;;23.68;49.37
49827;BME280;35715;51.570;6.036;2023-05-07T12:46:43;101557.50;;;23.82;49.47
49827;BME280;35715;51.570;6.036;2023-05-07T12:49:08;101560.91;;;23.78;48.12
49827;BME280;35715;51.570;6.036;2023-05-07T12:51:34;101559.47;;;23.90;49.78
49827;BME280;35715;51.570;6.036;2023-05-07T12:54:00;101558.13;;;24.06;49.94
49827;BME280;35715;51.570;6.036;2023-05-07T12:56:25;101554.41;;;23.98;50.77
49827;BME280;35715;51.570;6.036;2023-05-07T12:59:10;101564.84;;;23.95;51.21
49827;BME280;35715;51.570;6.036;2023-05-07T13:01:35;101566.09;;;23.74;52.27
49827;BME280;35715;51.570;6.036;2023-05-07T13:04:01;101563.06;;;23.59;52.73
49827;BME280;35715;51.570;6.036;2023-05-07T13:06:27;101558.63;;;23.56;51.88
49827;BME280;35715;51.570;6.036;2023-05-07T13:08:53;101553.19;;;23.50;52.22
49827;BME280;35715;51.570;6.036;2023-05-07T13:11:18;101562.56;;;23.41;52.29
49827;BME280;35715;51.570;6.036;2023-05-07T13:13:43;101567.19;;;23.16;53.00
49827;BME280;35715;51.570;6.036;2023-05-07T13:16:27;101572.88;;;23.31;53.21
49827;BME280;35715;51.570;6.036;2023-05-07T13:18:52;101573.69;;;23.29;52.77
49827;BME280;35715;51.570;6.036;2023-05-07T13:21:18;101575.38;;;23.27;53.13
49827;BME280;35715;51.570;6.036;2023-05-07T13:23:44;101562.81;;;23.16;53.07
49827;BME280;35715;51.570;6.036;2023-05-07T13:26:09;101571.69;;;23.20;53.01
49827;BME280;35715;51.570;6.036;2023-05-07T13:28:35;101569.50;;;23.05;54.02
49827;BME280;35715;51.570;6.036;2023-05-07T13:31:00;101566.81;;;23.03;53.75
49827;BME280;35715;51.570;6.036;2023-05-07T13:33:44;101572.28;;;23.10;54.48
49827;BME280;35715;51.570;6.036;2023-05-07T13:36:09;101573.16;;;23.10;54.09
49827;BME280;35715;51.570;6.036;2023-05-07T13:38:35;101572.53;;;23.19;54.08
49827;BME280;35715;51.570;6.036;2023-05-07T13:41:00;101580.69;;;23.28;56.08
49827;BME280;35715;51.570;6.036;2023-05-07T13:43:25;101579.84;;;23.29;55.00
49827;BME280;35715;51.570;6.036;2023-05-07T13:45:51;101587.88;;;23.34;57.01
49827;BME280;35715;51.570;6.036;2023-05-07T13:48:17;101591.50;;;23.39;56.43
49827;BME280;35715;51.570;6.036;2023-05-07T13:50:42;101589.91;;;23.44;56.84
49827;BME280;35715;51.570;6.036;2023-05-07T13:53:07;101593.38;;;23.43;56.03
49827;BME280;35715;51.570;6.036;2023-05-07T13:55:33;101590.78;;;23.45;57.18
49827;BME280;35715;51.570;6.036;2023-05-07T13:58:03;101598.69;;;23.45;58.29